Time;durP1;ratioP1;P1;durP2;ratioP2;P2;SDS_P1;SDS_P2;PMS_P1;PMS_P2;Temp;Humidity;BMP_temperature;BMP_pressure;BME280_temperature;BME280_humidity;BME280_pressure;Samples;Min_cycle;Max_cycle;Signal;HPM_P1;HPM_P2
2022/04/03 00:00:53;;;;;;;41.42;12.55;;;2.10;99.90;;;;;;5110742;28;20038;-68
2022/04/03 00:03:57;;;;;;;19.52;11.20;;;2.80;99.90;;;;;;5110705;28;20047;-68
2022/04/03 00:07:02;;;;;;;16.08;10.25;;;2.90;99.90;;;;;;5109920;28;20037;-68
2022/04/03 00:10:06;;;;;;;17.80;9.85;;;3.40;99.90;;;;;;5110637;28;20046;-69
2022/04/03 00:13:10;;;;;;;21.95;12.15;;;4.30;99.90;;;;;;5110547;28;20042;-68
2022/04/03 00:16:14;;;;;;;15.52;9.52;;;3.30;99.90;;;;;;5110336;28;20042;-68
2022/04/03 00:19:18;;;;;;;15.18;9.35;;;3.20;99.90;;;;;;5110682;28;20039;-68
2022/04/03 00:22:23;;;;;;;15.75;9.10;;;3.00;99.90;;;;;;5110662;28;20043;-69
2022/04/03 00:25:27;;;;;;;13.15;9.10;;;3.10;99.90;;;;;;5110115;28;20038;-68
2022/04/03 00:28:31;;;;;;;15.55;8.35;;;3.30;99.90;;;;;;5110344;28;20335;-69
2022/04/03 00:31:35;;;;;;;14.85;8.65;;;3.20;99.90;;;;;;5110757;28;20331;-68
2022/04/03 00:34:39;;;;;;;16.55;8.77;;;3.20;99.90;;;;;;5110470;28;20039;-68
2022/04/03 00:37:43;;;;;;;16.77;8.27;;;2.80;99.90;;;;;;5109927;28;20047;-68
2022/04/03 00:40:49;;;;;;;12.45;5.47;;;3.30;99.90;;;;;;5110445;28;20043;-68
2022/04/03 00:43:54;;;;;;;9.30;5.60;;;3.40;99.90;;;;;;5110251;28;20066;-68
2022/04/03 00:46:59;;;;;;;9.95;5.95;;;3.20;99.90;;;;;;5109721;28;20393;-68
2022/04/03 00:50:04;;;;;;;8.60;5.75;;;3.30;99.90;;;;;;5110449;28;20035;-68
2022/04/03 00:53:08;;;;;;;8.68;5.20;;;3.20;99.90;;;;;;5110270;28;20047;-68
2022/04/03 00:56:13;;;;;;;12.07;7.25;;;3.00;99.90;;;;;;5109972;28;20050;-69
2022/04/03 00:59:17;;;;;;;16.50;9.70;;;2.90;99.90;;;;;;5110234;28;20497;-68
2022/04/03 01:02:21;;;;;;;23.00;11.88;;;2.80;99.90;;;;;;5110246;28;20059;-69
2022/04/03 01:05:25;;;;;;;10.55;6.60;;;2.60;99.90;;;;;;5110082;28;20335;-69
2022/04/03 01:08:29;;;;;;;10.55;6.00;;;2.70;99.90;;;;;;5109844;28;20414;-68
2022/04/03 01:11:34;;;;;;;7.65;5.07;;;3.80;99.90;;;;;;5110304;28;20054;-68
2022/04/03 01:14:41;;;;;;;7.88;4.90;;;2.90;99.90;;;;;;5110034;28;20390;-68
2022/04/03 01:17:45;;;;;;;8.68;4.70;;;4.70;99.90;;;;;;5109881;28;20284;-69
2022/04/03 01:20:49;;;;;;;9.10;5.03;;;3.70;99.90;;;;;;5110069;28;20039;-68
2022/04/03 01:23:55;;;;;;;8.63;4.95;;;2.40;99.90;;;;;;5112217;28;20403;-68
2022/04/03 01:26:59;;;;;;;6.35;4.35;;;2.80;99.90;;;;;;5113190;28;20372;-68
2022/04/03 01:30:05;;;;;;;11.85;7.07;;;2.80;99.90;;;;;;5113671;28;20046;-68
2022/04/03 01:33:09;;;;;;;15.65;9.13;;;2.40;99.90;;;;;;5113720;28;20046;-68
2022/04/03 01:36:13;;;;;;;63.65;12.02;;;2.00;99.90;;;;;;5113066;28;20038;-68
2022/04/03 01:39:17;;;;;;;178.52;20.95;;;2.80;99.90;;;;;;5113462;28;20043;-68
2022/04/03 01:42:21;;;;;;;16.90;9.02;;;1.80;99.90;;;;;;5113989;28;20051;-68
2022/04/03 01:45:25;;;;;;;19.77;8.68;;;1.70;99.90;;;;;;5113753;28;20047;-68
2022/04/03 01:48:29;;;;;;;15.32;8.98;;;1.80;99.90;;;;;;5113329;28;20497;-69
2022/04/03 01:51:33;;;;;;;15.20;8.68;;;3.90;99.90;;;;;;5113449;28;20062;-69
2022/04/03 01:54:37;;;;;;;13.10;7.93;;;-0.90;99.90;;;;;;5113469;28;20043;-68
2022/04/03 01:57:42;;;;;;;9.95;6.45;;;1.40;99.90;;;;;;5112491;28;20485;-68
2022/04/03 02:00:46;;;;;;;14.25;8.20;;;1.80;99.90;;;;;;5113256;28;20032;-68
2022/04/03 02:03:50;;;;;;;12.95;8.82;;;1.70;99.90;;;;;;5112646;28;20043;-68
2022/04/03 02:06:58;;;;;;;18.98;7.70;;;0.40;99.90;;;;;;5112104;28;20050;-68
2022/04/03 02:10:08;;;;;;;16.60;7.80;;;1.40;99.90;;;;;;5112647;28;20039;-68
2022/04/03 02:13:12;;;;;;;175.30;17.30;;;1.30;99.90;;;;;;5112921;28;20043;-68
2022/04/03 02:16:16;;;;;;;118.00;9.88;;;1.30;99.90;;;;;;5112726;28;20050;-68
2022/04/03 02:19:21;;;;;;;253.95;14.43;;;4.00;99.90;;;;;;5112572;28;20501;-68
2022/04/03 02:22:25;;;;;;;91.40;10.57;;;2.20;99.90;;;;;;5112688;28;20067;-68
2022/04/03 02:25:29;;;;;;;367.08;27.98;;;0.10;99.90;;;;;;5112604;28;20046;-68
2022/04/03 02:28:33;;;;;;;132.02;10.98;;;1.10;99.90;;;;;;5112433;28;20042;-67
2022/04/03 02:31:37;;;;;;;68.40;8.77;;;2.00;99.90;;;;;;5112320;28;20038;-68
2022/04/03 02:34:41;;;;;;;110.30;22.33;;;0.90;99.90;;;;;;5111284;28;20038;-68
2022/04/03 02:37:45;;;;;;;152.77;12.25;;;0.90;99.90;;;;;;5111885;28;20046;-68
2022/04/03 02:40:49;;;;;;;10.85;6.05;;;;;;;;;;5111776;28;20043;-67
2022/04/03 02:43:54;;;;;;;11.52;6.00;;;1.40;99.90;;;;;;5111786;28;20038;-68
2022/04/03 02:46:58;;;;;;;7.88;5.45;;;1.20;99.90;;;;;;5111314;28;20386;-68
2022/04/03 02:50:03;;;;;;;11.95;5.22;;;0.90;99.90;;;;;;5112121;28;20039;-68
2022/04/03 02:53:07;;;;;;;9.57;6.03;;;2.40;99.90;;;;;;5111934;28;20043;-68
2022/04/03 02:56:11;;;;;;;14.85;6.53;;;1.20;99.90;;;;;;5111458;28;20058;-67
2022/04/03 02:59:15;;;;;;;8.88;5.82;;;3.00;99.90;;;;;;5111686;28;20042;-68
2022/04/03 03:02:20;;;;;;;923.45;58.45;;;0.10;99.90;;;;;;5111370;28;20032;-68
2022/04/03 03:05:23;;;;;;;866.28;50.90;;;0.80;99.90;;;;;;5111507;28;20070;-68
2022/04/03 03:08:28;;;;;;;787.65;50.95;;;0.60;99.90;;;;;;5111220;28;20039;-67
2022/04/03 03:11:31;;;;;;;378.40;25.48;;;0.50;99.90;;;;;;5111637;28;20042;-67
2022/04/03 03:14:35;;;;;;;472.08;30.33;;;0.60;99.90;;;;;;5111410;28;20050;-68
2022/04/03 03:17:39;;;;;;;88.90;13.93;;;0.60;99.90;;;;;;5110851;28;20050;-68
2022/04/03 03:20:43;;;;;;;41.85;9.98;;;0.60;99.90;;;;;;5111186;28;20588;-68
2022/04/03 03:23:47;;;;;;;182.57;14.57;;;0.60;99.90;;;;;;5111317;28;20035;-68
2022/04/03 03:26:51;;;;;;;13.45;7.90;;;0.50;99.90;;;;;;5110478;28;20051;-68
2022/04/03 03:29:55;;;;;;;236.80;16.50;;;0.60;99.90;;;;;;5111041;28;20058;-68
2022/04/03 03:32:59;;;;;;;260.55;19.50;;;0.50;99.90;;;;;;5111266;28;20114;-68
2022/04/03 03:36:05;;;;;;;200.38;17.48;;;1.10;99.90;;;;;;5110784;28;20062;-68
2022/04/03 03:39:09;;;;;;;414.75;29.83;;;0.40;99.90;;;;;;5111112;28;20311;-68
2022/04/03 03:42:14;;;;;;;435.67;27.75;;;1.30;99.90;;;;;;5110713;28;20046;-68
2022/04/03 03:45:18;;;;;;;40.65;8.75;;;0.60;99.90;;;;;;5110888;28;20047;-68
2022/04/03 03:48:22;;;;;;;95.63;10.80;;;1.60;99.90;;;;;;5110389;28;20042;-68
2022/04/03 03:51:26;;;;;;;54.70;10.13;;;0.70;99.90;;;;;;5110846;28;20359;-68
2022/04/03 03:54:31;;;;;;;246.40;19.50;;;0.80;99.90;;;;;;5110845;28;20717;-68
2022/04/03 03:57:35;;;;;;;443.75;29.42;;;3.70;99.90;;;;;;5110369;28;20568;-68
2022/04/03 04:00:39;;;;;;;150.05;14.98;;;0.90;99.90;;;;;;5110370;28;20050;-68
2022/04/03 04:03:44;;;;;;;157.13;13.82;;;1.00;99.90;;;;;;5110803;28;20042;-67
2022/04/03 04:06:48;;;;;;;315.20;20.38;;;1.80;99.90;;;;;;5109497;28;20051;-68
2022/04/03 04:09:52;;;;;;;369.75;23.17;;;0.90;99.90;;;;;;5110810;28;20038;-67
2022/04/03 04:12:56;;;;;;;427.15;27.30;;;1.10;99.90;;;;;;5110308;28;20486;-67
2022/04/03 04:16:00;;;;;;;74.72;11.65;;;1.20;99.90;;;;;;5110317;28;20051;-68
2022/04/03 04:19:06;;;;;;;189.10;23.33;;;2.10;99.90;;;;;;5110488;28;20040;-67
2022/04/03 04:22:10;;;;;;;144.07;16.63;;;2.10;99.90;;;;;;5110583;28;20039;-68
2022/04/03 04:25:14;;;;;;;157.60;15.68;;;1.20;99.90;;;;;;5110830;28;20051;-68
2022/04/03 04:28:19;;;;;;;82.07;9.50;;;-0.40;99.90;;;;;;5109965;28;20051;-68
2022/04/03 04:31:23;;;;;;;17.85;7.43;;;1.30;99.90;;;;;;5110299;28;20538;-68
2022/04/03 04:34:27;;;;;;;69.22;8.85;;;1.20;99.90;;;;;;5110553;28;20046;-68
2022/04/03 04:37:31;;;;;;;68.85;8.77;;;1.20;99.90;;;;;;5110002;28;20058;-68
2022/04/03 04:40:35;;;;;;;90.90;9.65;;;1.10;99.90;;;;;;5110177;28;20052;-68
2022/04/03 04:43:40;;;;;;;29.00;7.00;;;1.00;99.90;;;;;;5110391;28;20074;-67
2022/04/03 04:46:44;;;;;;;136.63;12.75;;;1.00;99.90;;;;;;5109586;28;20050;-67
2022/04/03 04:49:49;;;;;;;81.78;9.60;;;0.90;99.90;;;;;;5110391;28;20501;-68
2022/04/03 04:52:53;;;;;;;67.53;8.13;;;0.80;99.90;;;;;;5110116;28;20386;-68
2022/04/03 04:55:57;;;;;;;84.05;10.18;;;0.90;99.90;;;;;;5110277;28;20050;-68
2022/04/03 04:59:02;;;;;;;127.50;13.32;;;0.80;99.90;;;;;;5112641;28;20054;-67
2022/04/03 05:02:06;;;;;;;140.18;12.43;;;0.90;99.90;;;;;;5113786;28;20047;-67
2022/04/03 05:05:10;;;;;;;86.03;10.48;;;1.00;99.90;;;;;;5114011;28;20066;-67
2022/04/03 05:08:15;;;;;;;149.48;13.73;;;-0.50;99.90;;;;;;5113348;28;20046;-67
2022/04/03 05:11:19;;;;;;;37.72;7.60;;;0.90;99.90;;;;;;5113781;28;20043;-68
2022/04/03 05:14:23;;;;;;;103.75;12.38;;;1.00;99.90;;;;;;5114030;28;20047;-68
2022/04/03 05:17:28;;;;;;;261.50;19.08;;;;;;;;;;5112405;28;20058;-67
2022/04/03 05:20:33;;;;;;;406.38;27.75;;;1.10;99.90;;;;;;5113749;28;20038;-68
2022/04/03 05:23:38;;;;;;;130.85;11.57;;;1.00;99.90;;;;;;5111972;28;20050;-67
2022/04/03 05:26:42;;;;;;;301.75;19.15;;;1.40;99.90;;;;;;5113092;28;20748;-68
2022/04/03 05:29:47;;;;;;;308.52;21.38;;;1.60;99.90;;;;;;5113543;28;20050;-68
2022/04/03 05:32:51;;;;;;;35.13;8.38;;;1.30;99.90;;;;;;5113017;28;20054;-68
2022/04/03 05:35:55;;;;;;;302.80;19.90;;;1.10;99.90;;;;;;5113641;28;20051;-68
2022/04/03 05:39:04;;;;;;;58.92;8.85;;;1.30;99.90;;;;;;5113505;28;20052;-68
2022/04/03 05:42:08;;;;;;;201.73;15.48;;;1.10;99.90;;;;;;5113444;28;20031;-68
2022/04/03 05:45:12;;;;;;;66.53;11.70;;;1.50;99.90;;;;;;5113576;28;20066;-68
2022/04/03 05:48:16;;;;;;;73.90;12.07;;;1.80;99.90;;;;;;5113017;28;20054;-68
2022/04/03 05:51:20;;;;;;;144.82;13.82;;;1.80;99.90;;;;;;5112929;28;20039;-68
2022/04/03 05:54:25;;;;;;;74.28;12.07;;;2.00;99.90;;;;;;5112839;28;20066;-68
2022/04/03 05:57:29;;;;;;;119.88;12.85;;;2.20;99.90;;;;;;5112458;28;20046;-68
2022/04/03 06:00:34;;;;;;;64.60;10.55;;;;;;;;;;5112557;28;20046;-68
2022/04/03 06:03:38;;;;;;;83.28;11.90;;;2.40;99.90;;;;;;5112418;28;20568;-68
2022/04/03 06:06:42;;;;;;;158.55;15.00;;;2.60;99.90;;;;;;5111702;28;20059;-68
2022/04/03 06:09:46;;;;;;;305.00;23.60;;;2.90;99.90;;;;;;5112192;28;20058;-68
2022/04/03 06:12:55;;;;;;;327.30;23.63;;;3.20;99.90;;;;;;5112294;28;20046;-68
2022/04/03 06:16:00;;;;;;;267.90;18.33;;;;;;;;;;5112477;28;20046;-68
2022/04/03 06:19:04;;;;;;;63.55;10.63;;;3.00;99.90;;;;;;5112759;28;20038;-69
2022/04/03 06:22:08;;;;;;;380.85;21.63;;;3.10;99.90;;;;;;5112465;28;20497;-68
2022/04/03 06:25:12;;;;;;;118.97;9.88;;;3.10;99.90;;;;;;5112557;28;20054;-69
2022/04/03 06:28:16;;;;;;;381.23;25.83;;;2.80;99.90;;;;;;5111813;28;20038;-68
2022/04/03 06:31:20;;;;;;;11.57;6.22;;;3.20;99.90;;;;;;5112395;28;20102;-68
2022/04/03 06:34:25;;;;;;;441.17;24.40;;;2.60;99.90;;;;;;5112092;28;20446;-68
2022/04/03 06:37:29;;;;;;;97.30;8.82;;;2.60;99.90;;;;;;5112158;28;20054;-68
2022/04/03 06:40:34;;;;;;;138.32;11.85;;;3.50;99.90;;;;;;5112163;28;20390;-68
2022/04/03 06:43:38;;;;;;;104.00;11.05;;;3.50;99.90;;;;;;5112001;28;20390;-69
2022/04/03 06:46:41;;;;;;;300.92;21.45;;;6.40;99.90;;;;;;5111413;28;20063;-68
2022/04/03 06:49:45;;;;;;;217.98;13.40;;;5.40;99.90;;;;;;5111662;28;20047;-69
2022/04/03 06:52:49;;;;;;;97.78;12.27;;;5.40;99.90;;;;;;5111852;28;20055;-68
2022/04/03 06:55:53;;;;;;;91.25;13.52;;;5.20;99.90;;;;;;5112273;28;20580;-68
2022/04/03 06:58:57;;;;;;;162.52;12.48;;;5.40;99.90;;;;;;5112160;28;20042;-69
2022/04/03 07:02:02;;;;;;;156.05;11.80;;;4.60;99.90;;;;;;5111752;28;20670;-69
2022/04/03 07:05:06;;;;;;;292.23;18.80;;;4.50;99.90;;;;;;5110365;28;20046;-68
2022/04/03 07:08:10;;;;;;;148.95;11.40;;;4.30;99.90;;;;;;5109822;28;20042;-68
2022/04/03 07:11:15;;;;;;;41.22;7.40;;;4.60;99.90;;;;;;5111333;28;20054;-68
2022/04/03 07:14:19;;;;;;;82.28;10.05;;;4.80;99.90;;;;;;5111013;28;20043;-69
2022/04/03 07:17:23;;;;;;;63.33;11.38;;;4.80;99.90;;;;;;5110992;28;20046;-68
2022/04/03 07:20:27;;;;;;;325.33;21.27;;;5.00;99.90;;;;;;5110898;28;20497;-68
2022/04/03 07:23:31;;;;;;;212.95;18.92;;;5.10;99.90;;;;;;5110884;28;20398;-69
2022/04/03 07:26:36;;;;;;;384.75;23.38;;;5.20;99.90;;;;;;5110900;28;20043;-69
2022/04/03 07:29:40;;;;;;;199.55;14.95;;;5.30;99.90;;;;;;5111068;28;20206;-69
2022/04/03 07:32:44;;;;;;;39.03;9.65;;;5.60;99.90;;;;;;5111203;28;20058;-69
2022/04/03 07:35:48;;;;;;;62.83;13.85;;;6.50;99.90;;;;;;5111191;28;20533;-69
2022/04/03 07:38:52;;;;;;;36.38;13.70;;;6.50;99.90;;;;;;5111320;28;20050;-69
2022/04/03 07:41:56;;;;;;;47.70;15.65;;;7.20;99.90;;;;;;5111228;28;20046;-69
2022/04/03 07:45:01;;;;;;;138.82;25.35;;;8.00;99.90;;;;;;5110878;28;20046;-69
2022/04/03 07:48:05;;;;;;;32.28;11.68;;;8.30;99.90;;;;;;5110168;28;20046;-69
2022/04/03 07:51:09;;;;;;;113.70;13.57;;;7.00;99.90;;;;;;5110914;28;20039;-69
2022/04/03 07:54:14;;;;;;;23.05;12.65;;;7.00;99.90;;;;;;5110245;28;20042;-68
2022/04/03 07:57:19;;;;;;;140.15;13.05;;;5.90;99.90;;;;;;5110401;28;20047;-69
2022/04/03 08:00:23;;;;;;;82.80;11.30;;;5.20;99.90;;;;;;5110716;28;20232;-68
2022/04/03 08:03:27;;;;;;;31.73;10.93;;;6.10;99.90;;;;;;5110799;28;20497;-68
2022/04/03 08:06:31;;;;;;;18.73;9.32;;;7.10;99.90;;;;;;5109692;28;20414;-69
2022/04/03 08:09:35;;;;;;;14.43;8.40;;;7.70;99.90;;;;;;5105980;28;20031;-69
2022/04/03 08:12:40;;;;;;;12.27;7.57;;;7.70;99.90;;;;;;5107981;28;20038;-69
2022/04/03 08:15:44;;;;;;;18.60;8.05;;;7.50;99.90;;;;;;5098970;28;20047;-69
2022/04/03 08:18:48;;;;;;;16.17;9.82;;;8.00;99.90;;;;;;5089445;28;20057;-68
2022/04/03 08:21:52;;;;;;;22.90;12.20;;;6.20;99.90;;;;;;5090868;28;20051;-68
2022/04/03 08:24:56;;;;;;;19.63;11.88;;;5.90;99.90;;;;;;5090624;28;20075;-68
2022/04/03 08:28:01;;;;;;;23.58;12.70;;;7.20;99.90;;;;;;5089974;28;20051;-69
2022/04/03 08:31:05;;;;;;;23.38;13.55;;;6.60;99.90;;;;;;5090313;28;20051;-69
2022/04/03 08:34:09;;;;;;;19.58;11.55;;;6.40;99.90;;;;;;5094625;28;20051;-69
2022/04/03 08:37:13;;;;;;;17.73;10.30;;;6.30;99.90;;;;;;5094478;28;20378;-69
2022/04/03 08:40:19;;;;;;;16.70;9.73;;;8.60;99.90;;;;;;5094316;28;20051;-69
2022/04/03 08:43:28;;;;;;;16.25;9.75;;;8.80;99.90;;;;;;5093579;28;20376;-69
2022/04/03 08:46:33;;;;;;;12.88;8.52;;;9.80;99.90;;;;;;5093743;28;20051;-69
2022/04/03 08:49:40;;;;;;;13.02;8.27;;;11.00;99.90;;;;;;5094328;28;20043;-69
2022/04/03 08:52:47;;;;;;;11.43;7.72;;;12.60;99.90;;;;;;5094360;28;20054;-69
2022/04/03 08:55:51;;;;;;;9.43;5.85;;;13.80;99.90;;;;;;5094128;28;20039;-69
2022/04/03 08:58:58;;;;;;;7.97;6.03;;;17.50;99.90;;;;;;5094138;28;20521;-69
2022/04/03 09:02:02;;;;;;;8.38;5.93;;;19.40;99.90;;;;;;5094402;28;20051;-69
2022/04/03 09:05:09;;;;;;;6.90;5.20;;;19.40;99.70;;;;;;5093384;28;20055;-70
2022/04/03 09:08:15;;;;;;;6.47;4.80;;;21.70;91.70;;;;;;5093077;28;20047;-70
2022/04/03 09:11:19;;;;;;;6.90;5.35;;;20.00;90.10;;;;;;5093522;28;20043;-70
2022/04/03 09:14:23;;;;;;;6.68;5.57;;;19.30;91.20;;;;;;5094673;28;20027;-73
2022/04/03 09:17:52;;;;;;;7.22;5.82;;;15.40;97.00;;;;;;5092323;28;20043;-74
2022/04/03 09:20:58;;;;;;;6.78;5.35;;;17.10;98.10;;;;;;5093257;28;20039;-73
2022/04/03 09:24:13;;;;;;;6.78;5.05;;;20.80;97.00;;;;;;5093645;28;20039;-73
2022/04/03 09:27:17;;;;;;;7.35;4.60;;;22.30;91.40;;;;;;5092849;28;20039;-74
2022/04/03 09:30:24;;;;;;;6.65;4.40;;;22.30;92.10;;;;;;5093059;28;20058;-73
2022/04/03 09:33:28;;;;;;;7.25;4.55;;;22.80;88.20;;;;;;5092752;28;20043;-73
2022/04/03 09:36:34;;;;;;;5.03;3.63;;;19.30;90.80;;;;;;5092524;28;20501;-73
2022/04/03 09:39:38;;;;;;;7.35;4.78;;;18.90;93.20;;;;;;5093034;28;20600;-73
2022/04/03 09:42:42;;;;;;;4.82;4.10;;;20.70;91.80;;;;;;5094520;28;20390;-70
2022/04/03 09:45:53;;;;;;;5.30;3.72;;;21.10;90.20;;;;;;5094340;28;20047;-73
2022/04/03 09:48:59;;;;;;;4.38;3.25;;;20.80;90.50;;;;;;5094724;28;20043;-70
2022/04/03 09:52:07;;;;;;;6.65;4.53;;;21.30;90.60;;;;;;5094456;28;20387;-70
2022/04/03 09:55:17;;;;;;;5.32;4.57;;;20.40;91.80;;;;;;5094825;28;20040;-70
2022/04/03 09:58:22;;;;;;;6.93;5.10;;;20.80;90.00;;;;;;5093773;28;20059;-72
2022/04/03 10:01:30;;;;;;;6.78;4.95;;;19.00;92.60;;;;;;5092996;28;20043;-74
2022/04/03 10:04:35;;;;;;;9.00;5.72;;;19.10;93.20;;;;;;5094317;28;20047;-70
2022/04/03 10:07:41;;;;;;;6.30;5.50;;;19.00;91.90;;;;;;5093703;28;20055;-73
2022/04/03 10:10:47;;;;;;;5.18;3.58;;;17.80;92.40;;;;;;5095009;28;20039;-70
2022/04/03 10:13:53;;;;;;;6.78;3.80;;;22.50;87.80;;;;;;5092667;28;20035;-73
2022/04/03 10:16:59;;;;;;;5.55;3.00;;;24.10;83.30;;;;;;5091876;28;20055;-73
2022/04/03 10:20:03;;;;;;;5.30;2.58;;;25.40;82.10;;;;;;5092959;28;20501;-69
2022/04/03 10:23:11;;;;;;;3.58;2.03;;;20.50;75.80;;;;;;5094008;28;20043;-73
2022/04/03 10:26:18;;;;;;;4.50;3.00;;;21.90;79.40;;;;;;5091365;28;20058;-73
2022/04/03 10:29:32;;;;;;;3.80;2.78;;;22.00;83.60;;;;;;5093760;28;20047;-69
2022/04/03 10:32:36;;;;;;;4.22;2.75;;;26.20;84.30;;;;;;5092145;28;20501;-71
2022/04/03 10:35:47;;;;;;;3.60;2.65;;;27.10;74.40;;;;;;5095184;28;20051;-71
2022/04/03 10:39:06;;;;;;;5.35;2.95;;;22.40;78.10;;;;;;5093315;28;20395;-70
2022/04/03 10:42:25;;;;;;;3.17;1.90;;;22.40;77.80;;;;;;5091891;28;20395;-71
2022/04/03 10:45:46;;;;;;;2.78;1.90;;;21.40;76.90;;;;;;5093661;28;20059;-70
2022/04/03 10:48:51;;;;;;;2.78;1.70;;;23.70;78.60;;;;;;5093743;28;20051;-70
2022/04/03 10:52:09;;;;;;;4.70;3.08;;;24.10;75.30;;;;;;5092017;28;20047;-68
2022/04/03 10:55:15;;;;;;;3.88;2.25;;;21.80;72.90;;;;;;5092471;28;20044;-70
2022/04/03 10:58:19;;;;;;;3.28;2.55;;;20.40;82.30;;;;;;5093069;28;20055;-73
2022/04/03 11:01:31;;;;;;;3.20;2.15;;;20.90;84.50;;;;;;5091800;28;20067;-71
2022/04/03 11:04:35;;;;;;;4.22;2.33;;;22.50;75.90;;;;;;5092632;28;20129;-72
2022/04/03 11:07:40;;;;;;;3.55;1.40;;;24.40;76.00;;;;;;5091556;28;20051;-71
2022/04/03 11:10:54;;;;;;;3.60;1.70;;;24.70;77.30;;;;;;5092149;28;20051;-70
2022/04/03 11:14:01;;;;;;;3.88;2.58;;;22.40;73.80;;;;;;5092295;28;20043;-71
2022/04/03 11:17:05;;;;;;;3.15;1.30;;;22.10;74.40;;;;;;5091672;28;20043;-71
2022/04/03 11:20:09;;;;;;;2.85;1.50;;;20.70;72.90;;;;;;5090232;28;20055;-71
2022/04/03 11:23:16;;;;;;;4.07;1.95;;;21.70;77.20;;;;;;5090614;28;20039;-68
2022/04/03 11:26:21;;;;;;;3.00;1.73;;;22.30;75.90;;;;;;5090297;28;20055;-68
2022/04/03 11:29:25;;;;;;;3.60;2.13;;;22.10;76.90;;;;;;5090618;28;20043;-67
2022/04/03 11:32:30;;;;;;;3.00;1.67;;;21.30;76.90;;;;;;5090724;28;20039;-70
2022/04/03 11:35:40;;;;;;;3.00;2.08;;;19.90;80.90;;;;;;5090598;28;20505;-70
2022/04/03 11:38:47;;;;;;;2.83;2.10;;;19.00;81.10;;;;;;5090712;28;20051;-70
2022/04/03 11:41:52;;;;;;;4.60;2.30;;;17.60;81.90;;;;;;5090856;28;20039;-70
2022/04/03 11:44:56;;;;;;;5.85;2.47;;;16.00;86.00;;;;;;5090739;28;20402;-69
2022/04/03 11:48:17;;;;;;;4.10;2.10;;;16.20;87.20;;;;;;5089925;28;20047;-70
2022/04/03 11:51:22;;;;;;;4.18;2.10;;;16.20;90.00;;;;;;5090750;28;20493;-70
2022/04/03 11:54:26;;;;;;;3.42;2.03;;;17.00;88.30;;;;;;5090576;28;20047;-70
2022/04/03 11:57:30;;;;;;;3.38;2.03;;;15.80;86.00;;;;;;5089777;28;20055;-70
2022/04/03 12:00:43;;;;;;;2.17;1.50;;;17.20;88.80;;;;;;5091018;28;20055;-71
2022/04/03 12:03:46;;;;;;;2.28;1.67;;;17.30;88.20;;;;;;5090120;28;20031;-70
2022/04/03 12:06:58;;;;;;;5.07;3.33;;;17.20;88.10;;;;;;5089677;28;20055;-70
2022/04/03 12:10:02;;;;;;;7.00;2.80;;;17.60;90.80;;;;;;5090404;28;20043;-70
2022/04/03 12:13:07;;;;;;;3.85;2.00;;;17.90;88.70;;;;;;5090099;28;20043;-70
2022/04/03 12:16:40;;;;;;;4.43;1.92;;;17.90;88.40;;;;;;5089900;28;20047;-70
2022/04/03 12:19:47;;;;;;;4.20;2.25;;;17.90;86.90;;;;;;5090186;28;20047;-70
2022/04/03 12:22:52;;;;;;;4.20;2.50;;;17.80;90.20;;;;;;5090392;28;20055;-70
2022/04/03 12:25:55;;;;;;;3.67;2.33;;;17.80;90.20;;;;;;5090472;28;20051;-70
2022/04/03 12:29:01;;;;;;;4.70;2.45;;;18.10;90.00;;;;;;5089834;28;20080;-70
2022/04/03 12:32:10;;;;;;;4.43;2.10;;;18.40;89.50;;;;;;5090448;28;20055;-70
2022/04/03 12:35:15;;;;;;;5.68;2.85;;;18.40;89.90;;;;;;5090290;28;20043;-70
2022/04/03 12:38:19;;;;;;;4.00;2.08;;;18.90;87.50;;;;;;5089978;28;20043;-70
2022/04/03 12:41:26;;;;;;;3.05;2.20;;;19.30;89.00;;;;;;5090213;28;20051;-71
2022/04/03 12:44:30;;;;;;;3.92;2.28;;;20.60;82.90;;;;;;5090039;28;20043;-69
2022/04/03 12:47:37;;;;;;;3.42;2.00;;;17.30;84.10;;;;;;5089483;28;20043;-69
2022/04/03 12:50:42;;;;;;;4.47;2.47;;;17.20;86.00;;;;;;5090096;28;20047;-69
2022/04/03 12:53:51;;;;;;;15.38;10.88;;;16.60;88.00;;;;;;5090064;28;20047;-70
2022/04/03 13:00:17;;;;;;;;;;;16.60;90.30;;;;;;5090007;28;20394;-70
2022/04/03 13:03:35;;;;;;;4.25;2.17;;;17.20;89.70;;;;;;5089580;28;19912;-70
2022/04/03 13:06:45;;;;;;;4.78;2.55;;;17.10;90.20;;;;;;5089228;28;20032;-70
2022/04/03 13:09:49;;;;;;;15.52;10.63;;;17.40;87.70;;;;;;5089269;28;20043;-69
2022/04/03 13:12:55;;;;;;;3.25;1.50;;;17.50;87.60;;;;;;5089670;28;20501;-70
2022/04/03 13:15:59;;;;;;;5.32;1.60;;;18.20;85.50;;;;;;5089382;28;20051;-69
2022/04/03 13:19:03;;;;;;;4.90;2.83;;;18.30;86.50;;;;;;5089909;28;20063;-70
2022/04/03 13:22:07;;;;;;;14.57;8.13;;;19.30;87.30;;;;;;5093410;28;20406;-70
2022/04/03 13:25:12;;;;;;;9.63;5.38;;;19.60;86.50;;;;;;5093341;28;20098;-70
2022/04/03 13:28:18;;;;;;;4.95;2.45;;;20.30;84.70;;;;;;5092551;28;20047;-67
2022/04/03 13:31:23;;;;;;;4.20;2.17;;;20.50;83.90;;;;;;5093149;28;20039;-68
2022/04/03 13:34:27;;;;;;;3.33;1.70;;;20.40;81.70;;;;;;5093294;28;20047;-69
2022/04/03 13:37:31;;;;;;;5.00;1.83;;;20.10;83.40;;;;;;5091976;28;20055;-67
2022/04/03 13:40:37;;;;;;;3.55;1.70;;;19.70;84.10;;;;;;5093250;28;20039;-69
2022/04/03 13:43:42;;;;;;;6.65;1.92;;;19.40;81.10;;;;;;5092813;28;20039;-69
2022/04/03 13:46:48;;;;;;;4.10;1.63;;;18.50;82.50;;;;;;5092698;28;20046;-70
2022/04/03 13:49:52;;;;;;;3.10;1.90;;;17.70;83.00;;;;;;5092957;28;20054;-69
2022/04/03 13:52:56;;;;;;;5.57;2.53;;;16.60;84.30;;;;;;5092759;28;20039;-72
2022/04/03 13:56:01;;;;;;;7.05;3.72;;;16.30;86.50;;;;;;5093411;28;20114;-73
2022/04/03 13:59:05;;;;;;;3.70;1.83;;;16.20;90.00;;;;;;5093854;28;20051;-69
2022/04/03 14:02:10;;;;;;;2.88;1.58;;;16.00;85.00;;;;;;5092179;28;20399;-69
2022/04/03 14:05:14;;;;;;;2.35;1.85;;;15.70;86.80;;;;;;5093194;28;20050;-69
2022/04/03 14:08:19;;;;;;;8.75;6.75;;;15.60;88.60;;;;;;5092096;28;20050;-69
2022/04/03 14:11:23;;;;;;;2.97;1.88;;;15.70;90.60;;;;;;5092649;28;20039;-69
2022/04/03 14:14:27;;;;;;;6.10;3.70;;;15.80;91.00;;;;;;5092843;28;20402;-69
2022/04/03 14:17:31;;;;;;;7.70;6.05;;;15.90;91.00;;;;;;5092120;28;20047;-69
2022/04/03 14:20:35;;;;;;;2.65;1.48;;;15.10;91.40;;;;;;5092265;28;20056;-70
2022/04/03 14:23:39;;;;;;;8.85;6.30;;;15.80;91.90;;;;;;5092160;28;20043;-69
2022/04/03 14:26:45;;;;;;;4.95;2.70;;;15.90;92.40;;;;;;5091594;28;20047;-69
2022/04/03 14:29:49;;;;;;;5.35;4.65;;;16.00;90.90;;;;;;5091819;28;20051;-69
2022/04/03 14:32:54;;;;;;;3.10;1.45;;;16.10;91.50;;;;;;5091907;28;20054;-69
2022/04/03 14:35:58;;;;;;;2.40;1.38;;;15.70;89.60;;;;;;5091779;28;20335;-69
2022/04/03 14:39:04;;;;;;;4.22;1.45;;;15.30;91.10;;;;;;5091776;28;20050;-69
2022/04/03 14:42:09;;;;;;;3.22;1.70;;;14.50;90.60;;;;;;5092084;28;20051;-69
2022/04/03 14:45:15;;;;;;;3.45;1.80;;;13.90;91.00;;;;;;5092181;28;20039;-70
2022/04/03 14:48:19;;;;;;;3.67;1.65;;;13.80;91.30;;;;;;5091287;28;20063;-69
2022/04/03 14:51:24;;;;;;;4.97;2.13;;;14.10;91.70;;;;;;5091574;28;20391;-69
2022/04/03 14:54:29;;;;;;;6.90;3.63;;;13.70;90.30;;;;;;5090690;28;20051;-69
2022/04/03 14:57:36;;;;;;;6.78;3.15;;;13.60;90.60;;;;;;5091411;28;20059;-69
2022/04/03 15:00:40;;;;;;;4.28;2.50;;;13.70;90.80;;;;;;5091274;28;20046;-69
2022/04/03 15:03:43;;;;;;;7.40;2.40;;;13.70;91.80;;;;;;5091675;28;20055;-69
2022/04/03 15:06:47;;;;;;;3.88;2.10;;;13.70;91.40;;;;;;5090823;28;20391;-69
2022/04/03 15:09:51;;;;;;;3.38;2.38;;;14.60;91.20;;;;;;5091344;28;20055;-69
2022/04/03 15:12:55;;;;;;;4.57;2.13;;;13.70;91.40;;;;;;5091225;28;20391;-69
2022/04/03 15:16:00;;;;;;;5.70;3.22;;;13.30;91.90;;;;;;5091022;28;20039;-69
2022/04/03 15:19:04;;;;;;;3.85;2.30;;;13.30;92.60;;;;;;5091348;28;20051;-69
2022/04/03 15:22:08;;;;;;;12.35;5.47;;;12.70;91.50;;;;;;5091223;28;20051;-69
2022/04/03 15:25:13;;;;;;;15.95;7.45;;;12.60;94.70;;;;;;5090975;28;20063;-69
2022/04/03 15:28:17;;;;;;;13.50;7.30;;;12.60;92.80;;;;;;5090549;28;20043;-69
2022/04/03 15:31:21;;;;;;;11.85;6.05;;;12.70;93.00;;;;;;5091200;28;20047;-69
2022/04/03 15:34:25;;;;;;;11.75;6.85;;;12.60;93.80;;;;;;5091138;28;20039;-69
2022/04/03 15:37:32;;;;;;;5.90;3.05;;;12.40;93.50;;;;;;5090561;28;20063;-69
2022/04/03 15:40:36;;;;;;;4.13;2.38;;;12.40;93.00;;;;;;5090553;28;20489;-69
2022/04/03 15:43:40;;;;;;;4.40;2.72;;;12.40;94.40;;;;;;5090508;28;20078;-69
2022/04/03 15:46:44;;;;;;;4.90;3.15;;;12.30;95.10;;;;;;5090452;28;20304;-69
2022/04/03 15:49:47;;;;;;;4.25;2.70;;;12.40;92.90;;;;;;5090460;28;20051;-69
2022/04/03 15:52:51;;;;;;;5.07;3.03;;;12.30;93.30;;;;;;5090939;28;20051;-69
2022/04/03 15:55:56;;;;;;;3.50;2.70;;;12.40;94.00;;;;;;5090763;28;20047;-69
2022/04/03 15:58:59;;;;;;;3.58;2.20;;;12.40;96.10;;;;;;5090695;28;20051;-68
2022/04/03 16:02:03;;;;;;;7.45;3.03;;;12.50;93.60;;;;;;5090686;28;20046;-69